Time;durP1;ratioP1;P1;durP2;ratioP2;P2;SDS_P1;SDS_P2;PMS_P1;PMS_P2;Temp;Humidity;BMP_temperature;BMP_pressure;BME280_temperature;BME280_humidity;BME280_pressure;Samples;Min_cycle;Max_cycle;Signal;HPM_P1;HPM_P2
2023/12/02 00:00:12;;;;;;;22.03;14.53;;;-0.30;99.90;;;;;;5032544;28;20186;-72
2023/12/02 00:02:38;;;;;;;17.53;13.73;;;-0.30;99.90;;;;;;5032821;28;20214;-73
2023/12/02 00:05:03;;;;;;;18.63;13.97;;;-0.30;99.90;;;;;;5032970;28;20227;-72
2023/12/02 00:07:29;;;;;;;14.70;13.03;;;-0.30;99.90;;;;;;5033721;28;20186;-72
2023/12/02 00:09:55;;;;;;;16.40;12.67;;;-0.40;99.90;;;;;;5033465;28;20186;-73
2023/12/02 00:12:20;;;;;;;16.13;12.30;;;-0.40;99.90;;;;;;5032082;28;20591;-73
2023/12/02 00:14:46;;;;;;;16.63;13.50;;;-0.40;99.90;;;;;;5033450;28;20203;-72
2023/12/02 00:17:11;;;;;;;19.13;12.63;;;-0.40;99.90;;;;;;5033290;28;20262;-72
2023/12/02 00:19:37;;;;;;;20.77;14.13;;;-0.40;99.90;;;;;;5051981;28;20174;-72
2023/12/02 00:22:04;;;;;;;15.03;12.63;;;-0.40;99.90;;;;;;5052957;28;20617;-72
2023/12/02 00:24:30;;;;;;;15.53;13.00;;;-0.40;99.90;;;;;;5053096;28;20244;-72
2023/12/02 00:26:55;;;;;;;16.33;14.20;;;-0.40;99.90;;;;;;5053104;28;20249;-72
2023/12/02 00:29:21;;;;;;;15.43;12.50;;;-0.50;99.90;;;;;;5053201;28;20589;-72
2023/12/02 00:31:47;;;;;;;16.57;12.50;;;-0.50;99.90;;;;;;5052932;28;20654;-72
2023/12/02 00:34:12;;;;;;;19.17;13.17;;;-0.50;99.90;;;;;;5052709;28;20282;-72
2023/12/02 00:36:38;;;;;;;16.80;13.37;;;-0.50;99.90;;;;;;5052996;28;20549;-73
2023/12/02 00:39:03;;;;;;;16.37;13.17;;;-0.40;99.90;;;;;;5052947;28;20206;-72
2023/12/02 00:41:29;;;;;;;18.53;13.60;;;-0.50;99.90;;;;;;5051890;28;20167;-72
2023/12/02 00:43:55;;;;;;;17.97;13.87;;;-0.50;99.90;;;;;;5052717;28;20225;-72
2023/12/02 00:46:20;;;;;;;17.57;13.50;;;-0.50;99.90;;;;;;5038302;28;20179;-73
2023/12/02 00:48:48;;;;;;;18.10;13.07;;;-0.50;99.90;;;;;;5032940;28;20218;-72
2023/12/02 00:51:14;;;;;;;18.33;14.07;;;-0.40;99.90;;;;;;5032680;28;20176;-72
2023/12/02 00:53:39;;;;;;;19.20;14.03;;;-0.40;99.90;;;;;;5032775;28;20176;-72
2023/12/02 00:56:05;;;;;;;18.50;14.40;;;-0.40;99.90;;;;;;5032863;28;20298;-73
2023/12/02 00:58:31;;;;;;;18.33;13.23;;;-0.40;99.90;;;;;;5032767;28;20624;-72
2023/12/02 01:00:57;;;;;;;20.80;15.17;;;-0.30;99.90;;;;;;5032495;28;20171;-73
2023/12/02 01:03:22;;;;;;;19.10;14.80;;;-0.30;99.90;;;;;;5032920;28;20171;-73
2023/12/02 01:05:48;;;;;;;20.17;13.83;;;-0.30;99.90;;;;;;5033409;28;20191;-72
2023/12/02 01:08:14;;;;;;;18.60;15.50;;;-0.30;99.90;;;;;;5032681;28;20184;-72
2023/12/02 01:10:39;;;;;;;22.77;16.10;;;-0.20;99.90;;;;;;5032005;28;20180;-72
2023/12/02 01:13:05;;;;;;;21.30;15.40;;;-0.20;99.90;;;;;;5035797;28;20193;-72
2023/12/02 01:15:30;;;;;;;19.20;15.10;;;-0.20;99.90;;;;;;5052180;28;20234;-72
2023/12/02 01:17:56;;;;;;;17.83;14.13;;;-0.20;99.90;;;;;;5052088;28;20285;-70
2023/12/02 01:20:22;;;;;;;19.67;15.37;;;-0.20;99.90;;;;;;5050657;28;20179;-73
2023/12/02 01:22:47;;;;;;;20.67;15.03;;;-0.20;99.90;;;;;;5051924;28;20704;-72
2023/12/02 01:25:13;;;;;;;18.97;14.73;;;-0.20;99.90;;;;;;5051736;28;20563;-72
2023/12/02 01:27:38;;;;;;;21.57;14.83;;;-0.20;99.90;;;;;;5051751;28;20179;-72
2023/12/02 01:30:04;;;;;;;19.87;16.43;;;-0.30;99.90;;;;;;5051715;28;20243;-73
2023/12/02 01:32:30;;;;;;;20.17;15.97;;;-0.20;99.90;;;;;;5051834;28;20270;-72
2023/12/02 01:34:55;;;;;;;18.73;15.03;;;-0.20;99.90;;;;;;5051636;28;20297;-74
2023/12/02 01:37:21;;;;;;;20.27;15.37;;;-0.20;99.90;;;;;;5051778;28;20213;-73
2023/12/02 01:39:46;;;;;;;17.83;14.00;;;-0.20;99.90;;;;;;5052108;28;20257;-71
2023/12/02 01:42:12;;;;;;;16.37;14.30;;;-0.20;99.90;;;;;;5050620;28;20174;-71
2023/12/02 01:44:38;;;;;;;20.40;14.50;;;-0.30;99.90;;;;;;5031658;28;20199;-71
2023/12/02 01:47:04;;;;;;;18.73;13.17;;;-0.30;99.90;;;;;;5032033;28;20639;-71
2023/12/02 01:49:32;;;;;;;19.60;14.83;;;-0.30;99.90;;;;;;5032493;28;20258;-71
2023/12/02 01:51:58;;;;;;;18.90;14.40;;;-0.30;99.90;;;;;;5032031;28;20179;-71
2023/12/02 01:54:23;;;;;;;18.67;14.63;;;-0.20;99.90;;;;;;5030680;28;20693;-71
2023/12/02 01:56:49;;;;;;;18.67;14.03;;;-0.20;99.90;;;;;;5031980;28;20168;-72
2023/12/02 01:59:15;;;;;;;21.53;13.37;;;-0.20;99.90;;;;;;5031504;28;20210;-70
2023/12/02 02:01:40;;;;;;;22.43;14.30;;;-0.30;99.90;;;;;;5031489;28;20659;-71
2023/12/02 02:04:06;;;;;;;20.17;14.40;;;-0.20;99.90;;;;;;5031677;28;20658;-71
2023/12/02 02:06:32;;;;;;;19.93;14.10;;;-0.20;99.90;;;;;;5031373;28;20250;-71
2023/12/02 02:08:58;;;;;;;17.90;13.43;;;-0.20;99.90;;;;;;5031375;28;20179;-71
2023/12/02 02:11:23;;;;;;;19.10;13.77;;;-0.30;99.90;;;;;;5041007;28;20262;-73
2023/12/02 02:13:49;;;;;;;17.10;14.13;;;-0.30;99.90;;;;;;5051205;28;20202;-71
2023/12/02 02:16:14;;;;;;;18.87;14.43;;;-0.30;99.90;;;;;;5051089;28;20781;-71
2023/12/02 02:18:40;;;;;;;18.37;13.47;;;-0.30;99.90;;;;;;5049674;28;20210;-71
2023/12/02 02:21:06;;;;;;;18.33;14.80;;;-0.30;99.90;;;;;;5049580;28;20262;-70
2023/12/02 02:23:31;;;;;;;17.53;14.03;;;-0.30;99.90;;;;;;5051198;28;20209;-71
2023/12/02 02:25:57;;;;;;;15.63;12.87;;;-0.30;99.90;;;;;;5050842;28;20618;-72
2023/12/02 02:28:24;;;;;;;21.30;13.40;;;-0.30;99.90;;;;;;5051017;28;20171;-71
2023/12/02 02:30:50;;;;;;;15.47;13.07;;;-0.20;99.90;;;;;;5050682;28;20175;-72
2023/12/02 02:33:17;;;;;;;17.87;13.30;;;-0.20;99.90;;;;;;5051249;28;20183;-71
2023/12/02 02:35:43;;;;;;;15.10;12.57;;;-0.20;99.90;;;;;;5050765;28;20279;-72
2023/12/02 02:38:09;;;;;;;17.70;13.30;;;-0.20;99.90;;;;;;5043988;28;20708;-72
2023/12/02 02:40:34;;;;;;;16.53;13.80;;;-0.20;99.90;;;;;;5030711;28;20182;-71
2023/12/02 02:43:00;;;;;;;20.33;14.77;;;-0.10;99.90;;;;;;5036923;28;20179;-71
2023/12/02 02:45:26;;;;;;;16.50;14.30;;;-0.10;99.90;;;;;;5050805;28;20615;-72
2023/12/02 02:47:52;;;;;;;17.33;14.40;;;-0.10;99.90;;;;;;5049619;28;20612;-71
2023/12/02 02:50:18;;;;;;;18.33;14.03;;;-0.10;99.90;;;;;;5049196;28;20193;-71
2023/12/02 02:52:44;;;;;;;18.43;13.97;;;-0.10;99.90;;;;;;5050621;28;20658;-71
2023/12/02 02:55:10;;;;;;;18.43;13.10;;;-0.10;99.90;;;;;;5050614;28;20274;-72
2023/12/02 02:57:35;;;;;;;19.47;14.60;;;-0.10;99.90;;;;;;5045618;28;20215;-71
2023/12/02 03:00:04;;;;;;;16.07;13.13;;;-0.10;99.90;;;;;;5030679;28;20233;-74
2023/12/02 03:02:30;;;;;;;18.93;12.70;;;-0.10;99.90;;;;;;5030637;28;20168;-71
2023/12/02 03:04:55;;;;;;;17.57;13.07;;;-0.10;99.90;;;;;;5031973;28;20246;-70
2023/12/02 03:07:21;;;;;;;17.37;13.07;;;0.00;99.90;;;;;;5034737;28;20187;-71
2023/12/02 03:09:46;;;;;;;16.53;12.80;;;0.00;99.90;;;;;;5035721;28;20226;-70
2023/12/02 03:12:12;;;;;;;17.33;12.67;;;-0.10;99.90;;;;;;5034294;28;20610;-71
2023/12/02 03:14:38;;;;;;;16.20;11.83;;;-0.10;99.90;;;;;;5034425;28;20206;-71
2023/12/02 03:17:04;;;;;;;16.93;13.50;;;0.00;99.90;;;;;;5033402;28;20678;-71
2023/12/02 03:19:30;;;;;;;16.13;13.00;;;0.00;99.90;;;;;;5034702;28;20228;-71
2023/12/02 03:21:55;;;;;;;15.07;12.10;;;0.00;99.90;;;;;;5033162;28;20722;-71
2023/12/02 03:24:21;;;;;;;16.63;13.50;;;0.00;99.90;;;;;;5034434;28;20196;-71
2023/12/02 03:26:47;;;;;;;15.77;11.83;;;0.00;99.90;;;;;;5034803;28;20179;-72
2023/12/02 03:29:12;;;;;;;17.93;13.17;;;0.00;99.90;;;;;;5034418;28;20234;-70
2023/12/02 03:31:38;;;;;;;16.20;12.77;;;0.00;99.90;;;;;;5034353;28;20180;-71
2023/12/02 03:34:04;;;;;;;18.47;13.13;;;0.00;99.90;;;;;;5034111;28;20594;-71
2023/12/02 03:36:30;;;;;;;16.17;12.33;;;0.00;99.90;;;;;;5034407;28;20171;-71
2023/12/02 03:38:56;;;;;;;14.67;13.00;;;0.00;99.90;;;;;;5050920;28;20634;-71
2023/12/02 03:41:22;;;;;;;15.90;12.70;;;0.00;99.90;;;;;;5054054;28;20278;-71
2023/12/02 03:43:47;;;;;;;17.63;13.63;;;0.00;99.90;;;;;;5054011;28;20179;-71
2023/12/02 03:46:13;;;;;;;15.70;13.40;;;0.10;99.90;;;;;;5053934;28;20244;-70
2023/12/02 03:48:38;;;;;;;20.20;14.30;;;0.00;99.90;;;;;;5054011;28;20229;-70
2023/12/02 03:51:04;;;;;;;17.67;13.93;;;-0.10;99.90;;;;;;5053710;28;20175;-71
2023/12/02 03:53:34;;;;;;;18.33;13.10;;;-0.10;99.90;;;;;;5038731;28;20263;-71
2023/12/02 03:56:00;;;;;;;15.80;13.17;;;-0.20;99.90;;;;;;5034145;28;20647;-71
2023/12/02 03:58:27;;;;;;;14.33;12.20;;;-0.20;99.90;;;;;;5033798;28;20257;-71
2023/12/02 04:00:53;;;;;;;15.30;12.97;;;-0.10;99.90;;;;;;5033696;28;20168;-70
2023/12/02 04:03:19;;;;;;;16.60;11.87;;;-0.20;99.90;;;;;;5033882;28;20176;-70
2023/12/02 04:05:45;;;;;;;15.07;11.80;;;-0.20;99.90;;;;;;5040703;28;20260;-70
2023/12/02 04:08:11;;;;;;;13.30;11.80;;;-0.20;99.90;;;;;;5053514;28;20178;-70
2023/12/02 04:10:36;;;;;;;16.63;11.77;;;-0.20;99.90;;;;;;5053202;28;20790;-70
2023/12/02 04:13:02;;;;;;;14.20;11.57;;;-0.20;99.90;;;;;;5053437;28;20171;-71
2023/12/02 04:15:27;;;;;;;15.37;11.53;;;-0.20;99.90;;;;;;5053308;28;20195;-72
2023/12/02 04:17:53;;;;;;;15.17;11.40;;;-0.20;99.90;;;;;;5052545;28;20206;-70
2023/12/02 04:20:21;;;;;;;16.73;11.87;;;-0.10;99.90;;;;;;5052794;28;20186;-70
2023/12/02 04:22:47;;;;;;;15.87;12.47;;;-0.10;99.90;;;;;;5053462;28;20166;-70
2023/12/02 04:25:13;;;;;;;17.07;12.67;;;-0.10;99.90;;;;;;5053227;28;20204;-71
2023/12/02 04:27:39;;;;;;;16.67;12.37;;;-0.10;99.90;;;;;;5053080;28;20187;-71
2023/12/02 04:30:06;;;;;;;13.43;12.03;;;-0.20;99.90;;;;;;5052985;28;20175;-71
2023/12/02 04:32:32;;;;;;;14.93;12.20;;;-0.10;99.90;;;;;;5053228;28;20205;-70
2023/12/02 04:34:57;;;;;;;14.03;12.33;;;0.00;99.90;;;;;;5036041;28;20247;-70
2023/12/02 04:37:23;;;;;;;15.17;12.70;;;0.00;99.90;;;;;;5033072;28;20249;-71
2023/12/02 04:39:48;;;;;;;14.87;12.97;;;-0.10;99.90;;;;;;5033001;28;20183;-71
2023/12/02 04:42:14;;;;;;;20.73;15.20;;;-0.10;99.90;;;;;;5032687;28;20179;-70
2023/12/02 04:44:39;;;;;;;18.73;13.77;;;-0.10;99.90;;;;;;5033002;28;20219;-70
2023/12/02 04:47:05;;;;;;;18.60;13.93;;;-0.10;99.90;;;;;;5033088;28;20179;-70
2023/12/02 04:49:31;;;;;;;19.47;14.57;;;-0.20;99.90;;;;;;5032906;28;20608;-71
2023/12/02 04:51:56;;;;;;;16.17;13.53;;;-0.20;99.90;;;;;;5032682;28;20194;-71
2023/12/02 04:54:22;;;;;;;17.97;14.37;;;-0.20;99.90;;;;;;5032541;28;20612;-70
2023/12/02 04:56:47;;;;;;;17.60;13.93;;;-0.30;99.90;;;;;;5032749;28;20171;-70
2023/12/02 04:59:13;;;;;;;15.57;12.53;;;-0.20;99.90;;;;;;5032575;28;20207;-71
2023/12/02 05:01:38;;;;;;;16.97;13.43;;;-0.20;99.90;;;;;;5038507;28;20265;-72
2023/12/02 05:04:05;;;;;;;14.73;12.60;;;-0.20;99.90;;;;;;5051173;28;20202;-70
2023/12/02 05:06:31;;;;;;;16.37;13.33;;;-0.10;99.90;;;;;;5052131;28;20175;-71
2023/12/02 05:08:57;;;;;;;13.73;12.10;;;-0.20;99.90;;;;;;5052126;28;20178;-71
2023/12/02 05:11:22;;;;;;;15.93;11.97;;;-0.20;99.90;;;;;;5052188;28;20178;-70
2023/12/02 05:13:49;;;;;;;17.63;14.30;;;-0.20;99.90;;;;;;5052471;28;20179;-70
2023/12/02 05:16:15;;;;;;;15.33;12.97;;;-0.20;99.90;;;;;;5052321;28;20257;-71
2023/12/02 05:18:41;;;;;;;15.23;12.20;;;-0.30;99.90;;;;;;5052653;28;20416;-71
2023/12/02 05:21:11;;;;;;;15.13;13.50;;;-0.30;99.90;;;;;;5052421;28;20171;-72
2023/12/02 05:23:40;;;;;;;14.13;12.63;;;-0.30;99.90;;;;;;5052112;28;20701;-71
2023/12/02 05:26:06;;;;;;;15.90;12.47;;;-0.30;99.90;;;;;;5052100;28;20199;-71
2023/12/02 05:28:32;;;;;;;16.93;14.17;;;-0.30;99.90;;;;;;5051799;28;20179;-71
2023/12/02 05:30:58;;;;;;;17.40;13.43;;;-0.30;99.90;;;;;;5035281;28;20205;-71
2023/12/02 05:33:24;;;;;;;18.37;14.40;;;-0.30;99.90;;;;;;5032114;28;20270;-71
2023/12/02 05:35:50;;;;;;;16.07;12.90;;;-0.30;99.90;;;;;;5055508;22;20692;-72
2023/12/02 05:38:16;;;;;;;16.03;14.10;;;-0.30;99.90;;;;;;5032240;28;20199;-72
2023/12/02 05:40:42;;;;;;;18.80;14.60;;;-0.30;99.90;;;;;;5031683;28;20563;-72
2023/12/02 05:43:07;;;;;;;16.77;14.87;;;-0.20;99.90;;;;;;5031572;28;20214;-71
2023/12/02 05:45:33;;;;;;;18.90;15.67;;;-0.30;99.90;;;;;;5031758;28;20249;-71
2023/12/02 05:47:59;;;;;;;21.57;16.20;;;-0.30;99.90;;;;;;5032014;28;20261;-71
2023/12/02 05:50:24;;;;;;;23.93;16.47;;;-0.30;99.90;;;;;;5031455;28;20263;-72
2023/12/02 05:52:50;;;;;;;20.20;16.33;;;-0.30;99.90;;;;;;5031718;28;20670;-71
2023/12/02 05:55:15;;;;;;;18.70;15.73;;;-0.30;99.90;;;;;;5031589;28;20206;-71
2023/12/02 05:57:44;;;;;;;18.03;14.97;;;-0.30;99.90;;;;;;5031884;28;20290;-71
2023/12/02 06:00:10;;;;;;;20.20;14.53;;;-0.20;99.90;;;;;;5032042;28;20168;-71
2023/12/02 06:02:35;;;;;;;18.37;13.93;;;-0.20;99.90;;;;;;5031894;28;20226;-71
2023/12/02 06:05:01;;;;;;;21.00;15.60;;;-0.30;99.90;;;;;;5031895;28;20198;-72
2023/12/02 06:07:27;;;;;;;18.43;14.13;;;-0.30;99.90;;;;;;5031895;28;20214;-72
2023/12/02 06:09:52;;;;;;;22.77;16.23;;;-0.30;99.90;;;;;;5031573;28;20214;-72
2023/12/02 06:12:18;;;;;;;18.33;13.60;;;-0.40;99.90;;;;;;5031525;28;20176;-72
2023/12/02 06:14:44;;;;;;;22.23;14.83;;;-0.50;99.90;;;;;;5032362;28;20290;-72
2023/12/02 06:17:09;;;;;;;17.93;14.77;;;-0.40;99.90;;;;;;5031917;28;20175;-72
2023/12/02 06:19:35;;;;;;;16.70;13.93;;;-0.50;99.90;;;;;;5031690;28;20605;-72
2023/12/02 06:22:00;;;;;;;19.50;14.80;;;-0.50;99.90;;;;;;5031486;28;20179;-71
2023/12/02 06:24:26;;;;;;;21.00;15.23;;;-0.60;99.90;;;;;;5031426;28;20222;-72
2023/12/02 06:26:51;;;;;;;19.63;15.73;;;-0.60;99.90;;;;;;5031322;28;20179;-71
2023/12/02 06:29:17;;;;;;;19.63;14.67;;;-0.60;99.90;;;;;;5031450;28;20606;-72
2023/12/02 06:31:42;;;;;;;18.37;15.23;;;-0.50;99.90;;;;;;5031518;28;20172;-71
2023/12/02 06:34:08;;;;;;;21.17;15.27;;;-0.50;99.90;;;;;;5030865;28;20191;-71
2023/12/02 06:36:34;;;;;;;22.23;15.60;;;-0.50;99.90;;;;;;5031351;28;20179;-71
2023/12/02 06:38:59;;;;;;;18.33;14.77;;;-0.50;99.90;;;;;;5031474;28;20192;-71
2023/12/02 06:41:25;;;;;;;18.77;14.40;;;-0.50;99.90;;;;;;5035239;28;20254;-72
2023/12/02 06:43:51;;;;;;;17.40;15.23;;;-0.50;99.90;;;;;;5035497;28;20654;-71
2023/12/02 06:46:21;;;;;;;20.67;15.07;;;-0.50;99.90;;;;;;5035290;28;20194;-71
2023/12/02 06:48:47;;;;;;;18.23;13.87;;;-0.50;99.90;;;;;;5035192;28;20172;-71
2023/12/02 06:51:13;;;;;;;19.87;14.43;;;-0.50;99.90;;;;;;5034886;28;20203;-72
2023/12/02 06:53:39;;;;;;;18.47;13.63;;;-0.50;99.90;;;;;;5034911;28;20206;-71
2023/12/02 06:56:05;;;;;;;22.57;14.67;;;-0.50;99.90;;;;;;5035456;28;20218;-72
2023/12/02 06:58:31;;;;;;;20.00;14.77;;;-0.50;99.90;;;;;;5035454;28;20202;-71
2023/12/02 07:00:56;;;;;;;19.90;14.97;;;-0.50;99.90;;;;;;5034852;28;20181;-71
2023/12/02 07:03:22;;;;;;;19.80;13.67;;;-0.50;99.90;;;;;;5035037;28;20661;-72
2023/12/02 07:05:48;;;;;;;21.77;15.77;;;-0.50;99.90;;;;;;5034888;28;20183;-71
2023/12/02 07:08:14;;;;;;;19.47;15.07;;;-0.50;99.90;;;;;;5034877;28;20550;-72
2023/12/02 07:10:39;;;;;;;19.33;14.67;;;-0.50;99.90;;;;;;5034709;28;20178;-71
2023/12/02 07:13:05;;;;;;;22.80;14.80;;;-0.60;99.90;;;;;;5034839;28;20184;-71
2023/12/02 07:15:30;;;;;;;21.17;15.00;;;-0.50;99.90;;;;;;5034588;28;20231;-72
2023/12/02 07:17:56;;;;;;;21.80;15.00;;;-0.50;99.90;;;;;;5034877;28;20670;-72
2023/12/02 07:20:22;;;;;;;21.50;15.13;;;-0.50;99.90;;;;;;5033092;28;20172;-71
2023/12/02 07:22:47;;;;;;;23.00;16.27;;;-0.50;99.90;;;;;;5034247;28;20186;-71
2023/12/02 07:25:13;;;;;;;18.73;14.23;;;-0.50;99.90;;;;;;5034563;28;20187;-72
2023/12/02 07:27:38;;;;;;;20.50;14.97;;;-0.50;99.90;;;;;;5034678;28;20254;-72
2023/12/02 07:30:04;;;;;;;18.37;13.70;;;-0.50;99.90;;;;;;5034464;28;20517;-72
2023/12/02 07:32:30;;;;;;;20.07;14.37;;;-0.40;99.90;;;;;;5034028;28;20178;-72
2023/12/02 07:34:56;;;;;;;25.43;15.90;;;-0.40;99.90;;;;;;5034450;28;20207;-72
2023/12/02 07:37:21;;;;;;;24.70;17.10;;;-0.40;99.90;;;;;;5034577;28;20219;-72
2023/12/02 07:39:47;;;;;;;23.80;15.73;;;-0.40;99.90;;;;;;5034737;28;20202;-72
2023/12/02 07:42:12;;;;;;;21.93;15.07;;;-0.40;99.90;;;;;;5033878;28;20610;-72
2023/12/02 07:44:38;;;;;;;24.20;16.13;;;-0.40;99.90;;;;;;5034017;28;20200;-72
2023/12/02 07:47:04;;;;;;;23.00;16.87;;;-0.30;99.90;;;;;;5034155;28;20203;-72
2023/12/02 07:49:29;;;;;;;22.73;15.53;;;-0.30;99.90;;;;;;5033667;28;20219;-72
2023/12/02 07:51:55;;;;;;;21.13;15.57;;;-0.20;99.90;;;;;;5033584;28;20613;-71
2023/12/02 07:54:21;;;;;;;23.90;15.33;;;-0.10;99.90;;;;;;5033696;28;20263;-72
2023/12/02 07:56:47;;;;;;;19.83;14.57;;;-0.10;99.90;;;;;;5034206;28;20186;-72
2023/12/02 07:59:12;;;;;;;20.87;14.50;;;-0.10;99.90;;;;;;5033600;28;20199;-72
2023/12/02 08:01:39;;;;;;;22.67;15.37;;;-0.10;99.90;;;;;;5033311;28;20172;-72
2023/12/02 08:04:05;;;;;;;22.23;15.70;;;0.00;99.90;;;;;;5033535;28;20580;-72
2023/12/02 08:06:31;;;;;;;19.97;15.40;;;0.00;99.90;;;;;;5033234;28;20167;-72
2023/12/02 08:08:57;;;;;;;19.83;14.43;;;-0.10;99.90;;;;;;5033520;28;20171;-72
2023/12/02 08:11:22;;;;;;;17.63;13.20;;;0.00;99.90;;;;;;5033255;28;20256;-71
2023/12/02 08:13:48;;;;;;;16.97;12.40;;;0.00;99.90;;;;;;5033459;28;20710;-72
2023/12/02 08:16:14;;;;;;;17.10;12.80;;;0.00;99.90;;;;;;5033129;28;20572;-72
2023/12/02 08:18:39;;;;;;;15.77;12.83;;;0.00;99.90;;;;;;5033296;28;20253;-72
2023/12/02 08:21:05;;;;;;;15.47;12.30;;;0.00;99.90;;;;;;5033241;28;20179;-72
2023/12/02 08:23:31;;;;;;;19.03;13.77;;;0.00;99.90;;;;;;5033252;28;20172;-72
2023/12/02 08:25:56;;;;;;;18.83;12.43;;;0.00;99.90;;;;;;5032709;28;20184;-72
2023/12/02 08:28:22;;;;;;;21.37;14.87;;;0.10;99.90;;;;;;5032810;28;20546;-72
2023/12/02 08:30:48;;;;;;;16.47;13.43;;;0.10;99.90;;;;;;5032903;28;20175;-72
2023/12/02 08:33:13;;;;;;;15.47;12.23;;;0.10;99.90;;;;;;5033086;28;20749;-72
2023/12/02 08:35:39;;;;;;;15.90;12.43;;;0.10;99.90;;;;;;5032679;28;20560;-73
2023/12/02 08:38:04;;;;;;;16.63;12.33;;;0.20;99.90;;;;;;5032747;28;20203;-72
2023/12/02 08:40:30;;;;;;;16.43;13.13;;;0.10;99.90;;;;;;5029392;28;20524;-72
2023/12/02 08:42:55;;;;;;;16.10;12.80;;;0.10;99.90;;;;;;5031288;28;20178;-72
2023/12/02 08:45:21;;;;;;;14.17;12.03;;;0.20;99.90;;;;;;5032734;28;20267;-72
2023/12/02 08:47:49;;;;;;;18.83;14.10;;;0.30;99.90;;;;;;5032839;28;20176;-72
2023/12/02 08:50:15;;;;;;;16.80;12.63;;;0.20;99.90;;;;;;5032534;28;20224;-72
2023/12/02 08:52:40;;;;;;;15.43;12.07;;;0.30;99.90;;;;;;5032522;28;20176;-72
2023/12/02 08:55:06;;;;;;;16.17;11.53;;;0.40;99.90;;;;;;5032916;28;20220;-72
2023/12/02 08:57:32;;;;;;;17.27;12.23;;;0.40;99.90;;;;;;5032096;28;20244;-72
2023/12/02 08:59:57;;;;;;;14.17;11.90;;;0.30;99.90;;;;;;5033602;28;20195;-72
2023/12/02 09:02:23;;;;;;;16.73;12.17;;;0.30;99.90;;;;;;5018672;28;20672;-72
2023/12/02 09:04:49;;;;;;;14.20;10.77;;;0.30;99.90;;;;;;5012698;28;20184;-72
2023/12/02 09:07:14;;;;;;;13.33;11.30;;;0.40;99.90;;;;;;5013100;28;20622;-72
2023/12/02 09:09:40;;;;;;;15.23;11.03;;;0.40;99.90;;;;;;5012728;28;20176;-72
2023/12/02 09:12:06;;;;;;;18.13;11.03;;;0.30;99.90;;;;;;5012571;28;20211;-72
2023/12/02 09:14:31;;;;;;;14.47;10.97;;;0.40;99.90;;;;;;5012451;28;20200;-72
2023/12/02 09:16:57;;;;;;;14.57;11.40;;;0.40;99.90;;;;;;5031590;28;20182;-72
2023/12/02 09:19:29;;;;;;;14.60;11.53;;;0.60;99.90;;;;;;5030315;28;20204;-72
2023/12/02 09:21:54;;;;;;;13.67;11.20;;;0.70;99.90;;;;;;5031845;28;20179;-72
2023/12/02 09:24:34;;;;;;;13.10;11.13;;;0.70;99.90;;;;;;5031984;28;20187;-72
2023/12/02 09:27:03;;;;;;;12.57;9.90;;;0.90;99.90;;;;;;5032299;28;20654;-71
2023/12/02 09:29:37;;;;;;;10.67;9.70;;;0.90;99.90;;;;;;5031349;28;20677;-72
2023/12/02 09:32:22;;;;;;;13.13;9.70;;;0.90;99.90;;;;;;5031900;28;20225;-72
2023/12/02 09:34:59;;;;;;;12.17;10.53;;;1.00;99.90;;;;;;5031665;28;20211;-72
2023/12/02 09:37:43;;;;;;;12.20;10.90;;;1.20;99.90;;;;;;5031441;28;20190;-73
2023/12/02 09:40:20;;;;;;;10.90;9.70;;;1.40;99.90;;;;;;5031762;28;20175;-72
2023/12/02 09:42:52;;;;;;;12.10;9.77;;;1.50;99.90;;;;;;5031950;28;20175;-72
2023/12/02 09:45:26;;;;;;;12.30;10.00;;;1.40;99.90;;;;;;5031656;28;20195;-72
2023/12/02 09:48:05;;;;;;;13.10;10.40;;;1.40;99.90;;;;;;5031704;28;20175;-71
2023/12/02 09:50:40;;;;;;;12.40;9.97;;;1.20;99.90;;;;;;5031450;28;20270;-72
2023/12/02 09:53:20;;;;;;;12.80;9.70;;;1.20;99.90;;;;;;5031747;28;20187;-72
2023/12/02 09:55:58;;;;;;;12.40;10.20;;;1.20;99.90;;;;;;5031383;28;20218;-72
2023/12/02 09:58:31;;;;;;;22.03;14.83;;;1.40;99.90;;;;;;5031097;28;20210;-72
2023/12/02 10:01:21;;;;;;;23.03;15.27;;;1.50;99.90;;;;;;5031128;28;20201;-72
2023/12/02 10:04:21;;;;;;;13.93;11.83;;;1.50;99.90;;;;;;5031283;28;20546;-72
2023/12/02 10:07:00;;;;;;;16.03;10.93;;;1.40;99.90;;;;;;5031208;28;20180;-71
2023/12/02 10:09:35;;;;;;;12.23;10.10;;;1.40;99.90;;;;;;5031022;28;20228;-71
2023/12/02 10:12:12;;;;;;;13.87;11.70;;;1.40;99.90;;;;;;5030765;28;20277;-71
2023/12/02 10:14:41;;;;;;;12.57;11.20;;;1.20;99.90;;;;;;5031078;28;20206;-71
2023/12/02 10:17:10;;;;;;;11.23;9.93;;;1.20;99.90;;;;;;5031123;28;20179;-72
2023/12/02 10:19:56;;;;;;;12.50;11.07;;;1.20;99.90;;;;;;5029608;28;20211;-71
2023/12/02 10:22:26;;;;;;;15.23;11.03;;;1.30;99.90;;;;;;5031432;28;20352;-71
2023/12/02 10:24:58;;;;;;;11.63;9.50;;;1.40;99.90;;;;;;5012233;28;20545;-71
2023/12/02 10:27:28;;;;;;;11.67;9.53;;;1.60;99.90;;;;;;5011475;28;20599;-71
2023/12/02 10:30:17;;;;;;;11.10;9.73;;;1.70;99.90;;;;;;5011425;28;20168;-72
2023/12/02 10:32:51;;;;;;;11.87;10.67;;;1.80;99.90;;;;;;5011328;28;20172;-71
2023/12/02 10:35:20;;;;;;;14.53;10.43;;;2.00;99.90;;;;;;5011063;28;20211;-71
2023/12/02 10:37:53;;;;;;;13.30;10.63;;;2.10;99.90;;;;;;5015826;28;20237;-71
2023/12/02 10:40:23;;;;;;;13.80;10.87;;;2.20;99.90;;;;;;5031160;28;20650;-71
2023/12/02 10:43:18;;;;;;;15.03;12.03;;;2.20;99.90;;;;;;5030951;28;20171;-70
2023/12/02 10:45:45;;;;;;;15.03;12.13;;;2.00;99.90;;;;;;5030859;28;20196;-71
2023/12/02 10:48:12;;;;;;;13.97;11.87;;;1.90;99.90;;;;;;5030938;28;20233;-71
2023/12/02 10:50:39;;;;;;;17.87;14.57;;;1.80;99.90;;;;;;5030225;28;20625;-71
2023/12/02 10:53:05;;;;;;;18.20;14.90;;;1.70;99.90;;;;;;5031157;28;20167;-71
2023/12/02 10:55:33;;;;;;;20.00;13.90;;;1.60;99.90;;;;;;5031042;28;20275;-71
2023/12/02 10:58:02;;;;;;;20.73;13.73;;;1.50;99.90;;;;;;5030894;28;20203;-71
2023/12/02 11:00:30;;;;;;;18.67;13.13;;;1.50;99.90;;;;;;5029580;28;20179;-71
2023/12/02 11:03:05;;;;;;;17.63;13.53;;;1.60;99.90;;;;;;5030758;28;20673;-71
2023/12/02 11:05:43;;;;;;;16.37;13.40;;;1.50;99.90;;;;;;5030718;28;20195;-71
2023/12/02 11:08:21;;;;;;;20.10;14.03;;;1.50;99.90;;;;;;5030894;28;20172;-70
2023/12/02 11:10:50;;;;;;;15.40;12.40;;;1.50;99.90;;;;;;5025745;28;20185;-71
2023/12/02 11:13:19;;;;;;;16.83;12.97;;;1.50;99.90;;;;;;5028468;28;20187;-71
2023/12/02 11:15:48;;;;;;;16.03;13.00;;;1.40;99.90;;;;;;5030770;28;20199;-71
2023/12/02 11:18:23;;;;;;;17.20;13.37;;;1.50;99.90;;;;;;5030699;28;20215;-71
2023/12/02 11:21:03;;;;;;;15.40;11.90;;;1.70;99.90;;;;;;5030407;28;20205;-70
2023/12/02 11:23:28;;;;;;;15.10;12.27;;;1.90;99.90;;;;;;5030852;28;20233;-70
2023/12/02 11:26:11;;;;;;;15.43;12.10;;;1.90;99.90;;;;;;5031942;28;20200;-71
2023/12/02 11:28:44;;;;;;;16.57;12.37;;;1.90;99.90;;;;;;5033831;28;20188;-70
2023/12/02 11:31:12;;;;;;;15.43;12.13;;;2.10;99.90;;;;;;5034007;28;20549;-71
2023/12/02 11:33:44;;;;;;;14.83;11.90;;;2.40;99.90;;;;;;5033445;28;20175;-71
2023/12/02 11:36:30;;;;;;;14.60;11.57;;;2.70;99.90;;;;;;5066813;22;20299;-68
2023/12/02 11:39:06;;;;;;;11.00;9.73;;;3.00;99.90;;;;;;5014155;28;20204;-68
2023/12/02 11:41:43;;;;;;;12.70;10.50;;;3.00;99.90;;;;;;5013580;28;20175;-67
2023/12/02 11:44:23;;;;;;;14.40;11.63;;;2.80;99.90;;;;;;5013450;28;20168;-67
2023/12/02 11:46:59;;;;;;;13.13;11.17;;;2.60;99.90;;;;;;4993935;28;20171;-68
2023/12/02 11:49:53;;;;;;;15.10;12.70;;;2.50;99.90;;;;;;4994289;28;20648;-68
2023/12/02 11:52:28;;;;;;;14.90;12.23;;;2.70;99.90;;;;;;4994299;28;20172;-67
2023/12/02 11:55:15;;;;;;;14.17;11.70;;;2.80;99.90;;;;;;4994324;28;20192;-68
2023/12/02 11:58:10;;;;;;;14.40;11.57;;;2.90;99.90;;;;;;4994173;28;20304;-67
2023/12/02 12:01:02;;;;;;;16.67;12.47;;;2.90;99.90;;;;;;4994005;28;20169;-68
2023/12/02 12:03:47;;;;;;;12.27;10.73;;;2.90;99.90;;;;;;4994016;28;20173;-68
2023/12/02 12:06:38;;;;;;;14.90;11.93;;;3.20;99.90;;;;;;4994337;28;20189;-68
2023/12/02 12:09:09;;;;;;;13.57;10.33;;;3.50;99.90;;;;;;4994055;28;20173;-67
2023/12/02 12:11:38;;;;;;;15.27;11.47;;;3.60;99.90;;;;;;4993754;28;20543;-67
2023/12/02 12:14:06;;;;;;;15.97;12.67;;;3.70;99.90;;;;;;4993751;28;20187;-67
2023/12/02 12:16:31;;;;;;;16.90;12.90;;;3.60;99.90;;;;;;4993423;28;20203;-68
2023/12/02 12:18:58;;;;;;;17.23;12.50;;;3.50;99.90;;;;;;4993272;28;20291;-67
2023/12/02 12:21:24;;;;;;;16.93;12.57;;;3.60;99.90;;;;;;4993553;28;20177;-68
2023/12/02 12:23:49;;;;;;;15.10;11.73;;;3.90;99.90;;;;;;4993724;28;20256;-67
2023/12/02 12:26:15;;;;;;;16.27;12.30;;;4.00;99.90;;;;;;4993777;28;20614;-67
2023/12/02 12:28:41;;;;;;;17.07;12.80;;;4.00;99.90;;;;;;4993500;28;20176;-67
2023/12/02 12:31:10;;;;;;;18.77;13.33;;;3.70;99.90;;;;;;4993270;28;20217;-67
2023/12/02 12:33:39;;;;;;;17.53;12.27;;;3.30;99.90;;;;;;4991768;28;20177;-66